createdAt,value
2022-11-29T00:00:15.147Z,45.50
2022-11-29T00:01:15.172Z,47.20
2022-11-29T00:02:15.216Z,70.00
2022-11-29T00:03:15.308Z,53.80
2022-11-29T00:04:15.132Z,51.00
2022-11-29T00:05:15.090Z,80.10
2022-11-29T00:06:15.076Z,59.30
2022-11-29T00:07:15.105Z,128.60
2022-11-29T00:08:15.055Z,240.80
2022-11-29T00:09:15.074Z,310.70
2022-11-29T00:10:15.045Z,241.00
2022-11-29T00:11:15.010Z,580.60
2022-11-29T00:12:14.993Z,582.10
2022-11-29T00:13:15.078Z,211.20
2022-11-29T00:14:15.008Z,295.90
2022-11-29T00:15:15.741Z,186.60
2022-11-29T00:16:15.057Z,57.70
2022-11-29T00:17:14.968Z,330.10
2022-11-29T00:18:14.921Z,403.00
2022-11-29T00:19:14.910Z,413.90
2022-11-29T00:20:14.952Z,95.00
2022-11-29T00:21:14.893Z,51.50
2022-11-29T00:22:14.905Z,79.30
2022-11-29T00:23:14.866Z,51.90
2022-11-29T00:24:14.890Z,58.50
2022-11-29T00:25:14.857Z,66.50
2022-11-29T00:26:14.881Z,62.10
2022-11-29T00:27:14.827Z,78.80
2022-11-29T00:28:14.894Z,84.30
2022-11-29T00:29:14.825Z,430.30
2022-11-29T00:30:14.860Z,558.90
2022-11-29T00:31:14.834Z,588.60
2022-11-29T00:32:14.811Z,195.40
2022-11-29T00:33:14.757Z,46.60
2022-11-29T00:34:14.773Z,51.30
2022-11-29T00:35:14.736Z,42.30
2022-11-29T00:36:14.784Z,46.20
2022-11-29T00:37:14.772Z,58.10
2022-11-29T00:38:14.732Z,44.80
2022-11-29T00:39:14.720Z,51.30
2022-11-29T00:40:14.722Z,57.70
2022-11-29T00:41:14.691Z,51.70
2022-11-29T00:42:14.703Z,58.70
2022-11-29T00:43:14.687Z,83.80
2022-11-29T00:44:19.929Z,70.80
2022-11-29T00:45:14.665Z,210.70
2022-11-29T00:46:14.752Z,277.50
2022-11-29T00:47:14.681Z,288.90
2022-11-29T00:48:14.624Z,328.40
2022-11-29T00:49:14.593Z,176.20
2022-11-29T00:50:14.609Z,267.00
2022-11-29T00:51:14.620Z,198.00
2022-11-29T00:52:14.651Z,183.60
2022-11-29T00:53:14.619Z,121.30
2022-11-29T00:54:14.610Z,169.00
2022-11-29T00:55:14.542Z,176.80
2022-11-29T00:56:14.528Z,187.80
2022-11-29T00:57:14.527Z,177.80
2022-11-29T00:58:14.493Z,230.50
2022-11-29T00:59:14.562Z,207.00
2022-11-29T01:00:14.515Z,357.30
2022-11-29T01:01:14.520Z,199.40
2022-11-29T01:02:14.507Z,238.10
2022-11-29T01:03:14.461Z,229.90
2022-11-29T01:04:14.432Z,322.80
2022-11-29T01:05:14.784Z,248.80
2022-11-29T01:06:14.484Z,228.50
2022-11-29T01:07:14.485Z,153.70
2022-11-29T01:08:14.480Z,213.40
2022-11-29T01:09:14.455Z,206.50
2022-11-29T01:10:14.398Z,175.00
2022-11-29T01:11:14.485Z,163.00
2022-11-29T01:12:14.369Z,191.20
2022-11-29T01:13:14.406Z,165.30
2022-11-29T01:14:14.346Z,176.80
2022-11-29T01:15:14.346Z,209.40
2022-11-29T01:16:14.398Z,172.00
2022-11-29T01:17:14.309Z,187.90
2022-11-29T01:18:14.361Z,177.40
2022-11-29T01:19:14.343Z,167.20
2022-11-29T01:20:14.318Z,96.80
2022-11-29T01:21:14.261Z,87.60
2022-11-29T01:22:14.269Z,146.30
2022-11-29T01:23:14.246Z,135.30
2022-11-29T01:24:14.238Z,166.00
2022-11-29T01:25:14.249Z,115.80
2022-11-29T01:26:14.221Z,183.10
2022-11-29T01:27:14.209Z,79.90
2022-11-29T01:28:14.235Z,137.10
2022-11-29T01:29:14.220Z,201.60
2022-11-29T01:30:14.186Z,142.10
2022-11-29T01:31:14.223Z,125.60
2022-11-29T01:32:14.139Z,242.10
2022-11-29T01:33:14.159Z,54.20
2022-11-29T01:34:14.132Z,134.20
2022-11-29T01:35:14.145Z,91.40
2022-11-29T01:36:14.124Z,59.90
2022-11-29T01:37:14.103Z,56.90
2022-11-29T01:38:14.070Z,59.90
2022-11-29T01:39:14.108Z,67.80
2022-11-29T01:40:14.080Z,48.60
2022-11-29T01:41:14.047Z,49.40
2022-11-29T01:42:14.098Z,59.10
2022-11-29T01:43:14.064Z,62.00
2022-11-29T01:44:14.022Z,54.90
2022-11-29T01:45:14.108Z,56.10
2022-11-29T01:46:14.025Z,55.30
2022-11-29T01:47:13.992Z,62.00
2022-11-29T01:48:13.971Z,55.60
2022-11-29T01:49:13.980Z,60.00
2022-11-29T01:50:13.988Z,77.50
2022-11-29T01:51:13.966Z,167.00
2022-11-29T01:52:13.947Z,139.60
2022-11-29T01:53:13.969Z,176.10
2022-11-29T01:54:13.922Z,347.10
2022-11-29T01:55:13.984Z,97.20
2022-11-29T01:56:13.963Z,344.00
2022-11-29T01:57:13.917Z,97.20
2022-11-29T01:58:13.888Z,200.00
2022-11-29T01:59:13.867Z,125.90
2022-11-29T02:00:13.872Z,117.00
2022-11-29T02:01:13.975Z,190.40
2022-11-29T02:02:13.854Z,145.80
2022-11-29T02:03:13.832Z,234.80
2022-11-29T02:04:13.854Z,177.50
2022-11-29T02:05:13.859Z,98.30
2022-11-29T02:06:13.801Z,186.80
2022-11-29T02:07:13.775Z,110.60
2022-11-29T02:08:13.823Z,122.90
2022-11-29T02:09:13.790Z,170.80
2022-11-29T02:10:13.764Z,148.90
2022-11-29T02:11:13.767Z,230.80
2022-11-29T02:12:13.715Z,161.10
2022-11-29T02:13:13.721Z,228.90
2022-11-29T02:14:13.756Z,170.30
2022-11-29T02:15:13.709Z,109.40
2022-11-29T02:16:13.782Z,139.00
2022-11-29T02:17:13.688Z,102.10
2022-11-29T02:18:13.736Z,117.40
2022-11-29T02:19:13.725Z,157.20
2022-11-29T02:20:13.688Z,136.10
2022-11-29T02:21:13.647Z,179.10
2022-11-29T02:22:13.644Z,194.50
2022-11-29T02:23:13.645Z,188.80
2022-11-29T02:24:13.667Z,170.90
2022-11-29T02:25:13.625Z,218.10
2022-11-29T02:26:13.591Z,148.80
2022-11-29T02:27:13.573Z,195.80
2022-11-29T02:28:13.609Z,183.80
2022-11-29T02:29:13.565Z,189.90
2022-11-29T02:30:13.552Z,159.80
2022-11-29T02:31:13.646Z,187.10
2022-11-29T02:32:13.505Z,173.70
2022-11-29T02:33:13.531Z,205.50
2022-11-29T02:34:13.517Z,177.50
2022-11-29T02:35:13.502Z,161.80
2022-11-29T02:36:13.482Z,110.90
2022-11-29T02:37:13.539Z,133.20
2022-11-29T02:38:13.509Z,142.40
2022-11-29T02:39:13.476Z,146.60
2022-11-29T02:40:13.470Z,169.50
2022-11-29T02:41:13.433Z,127.60
2022-11-29T02:42:13.426Z,160.50
2022-11-29T02:43:13.446Z,142.70
2022-11-29T02:44:13.406Z,135.40
2022-11-29T02:45:13.373Z,155.10
2022-11-29T02:46:13.392Z,155.10
2022-11-29T02:47:13.411Z,147.40
2022-11-29T02:48:13.370Z,128.70
2022-11-29T02:49:13.342Z,122.90
2022-11-29T02:50:13.317Z,160.40
2022-11-29T02:51:13.333Z,154.90
2022-11-29T02:52:13.361Z,150.10
2022-11-29T02:53:13.364Z,143.50
2022-11-29T02:54:13.311Z,141.90
2022-11-29T02:55:13.462Z,146.20
2022-11-29T02:56:13.310Z,138.50
2022-11-29T02:57:13.294Z,110.50
2022-11-29T02:58:13.262Z,126.90
2022-11-29T02:59:13.233Z,142.30
2022-11-29T03:00:13.239Z,152.10
2022-11-29T03:01:13.238Z,140.20
2022-11-29T03:02:13.240Z,138.60
2022-11-29T03:03:13.242Z,129.80
2022-11-29T03:04:13.196Z,155.30
2022-11-29T03:05:13.192Z,107.20
2022-11-29T03:06:13.164Z,114.20
2022-11-29T03:07:13.149Z,126.30
2022-11-29T03:08:13.154Z,125.50
2022-11-29T03:09:13.163Z,145.30
2022-11-29T03:10:13.134Z,151.00
2022-11-29T03:11:13.131Z,128.60
2022-11-29T03:12:13.128Z,165.10
2022-11-29T03:13:13.134Z,212.80
2022-11-29T03:14:13.054Z,158.70
2022-11-29T03:15:13.116Z,144.00
2022-11-29T03:16:13.083Z,129.80
2022-11-29T03:17:13.054Z,153.20
2022-11-29T03:18:13.075Z,136.40
2022-11-29T03:19:13.104Z,139.90
2022-11-29T03:20:13.020Z,160.10
2022-11-29T03:21:13.003Z,162.50
2022-11-29T03:22:12.978Z,157.70
2022-11-29T03:23:12.997Z,144.20
2022-11-29T03:24:12.964Z,141.00
2022-11-29T03:25:12.975Z,156.40
2022-11-29T03:26:12.953Z,120.50
2022-11-29T03:27:12.940Z,122.10
2022-11-29T03:28:13.016Z,146.30
2022-11-29T03:29:12.963Z,138.70
2022-11-29T03:30:12.913Z,143.90
2022-11-29T03:31:12.998Z,117.80
2022-11-29T03:32:12.897Z,109.40
2022-11-29T03:33:12.898Z,130.50
2022-11-29T03:34:12.897Z,103.70
2022-11-29T03:35:12.858Z,141.00
2022-11-29T03:36:12.875Z,97.60
2022-11-29T03:37:12.930Z,102.40
2022-11-29T03:38:12.856Z,100.90
2022-11-29T03:39:12.857Z,96.10
2022-11-29T03:40:12.804Z,106.60
2022-11-29T03:41:12.785Z,89.30
2022-11-29T03:42:12.772Z,104.90
2022-11-29T03:43:12.773Z,116.30
2022-11-29T03:44:12.770Z,134.90
2022-11-29T03:45:12.759Z,100.70
2022-11-29T03:46:12.740Z,98.70
2022-11-29T03:47:12.802Z,95.70
2022-11-29T03:48:12.778Z,92.40
2022-11-29T03:49:12.705Z,105.40
2022-11-29T03:50:12.705Z,96.90
2022-11-29T03:51:12.716Z,98.30
2022-11-29T03:52:12.682Z,93.60
2022-11-29T03:53:12.686Z,115.20
2022-11-29T03:54:12.647Z,106.10
2022-11-29T03:55:12.704Z,129.80
2022-11-29T03:56:12.617Z,130.40
2022-11-29T03:57:12.666Z,118.40
2022-11-29T03:58:12.626Z,102.30
2022-11-29T03:59:12.621Z,128.60
2022-11-29T04:00:12.635Z,118.30
2022-11-29T04:01:12.639Z,107.60
2022-11-29T04:02:12.618Z,95.50
2022-11-29T04:03:12.556Z,129.40
2022-11-29T04:04:12.553Z,110.70
2022-11-29T04:05:12.553Z,129.80
2022-11-29T04:06:12.528Z,133.20
2022-11-29T04:07:12.541Z,157.20
2022-11-29T04:08:12.502Z,193.60
2022-11-29T04:09:12.568Z,232.40
2022-11-29T04:10:12.519Z,198.50
2022-11-29T04:11:12.490Z,181.90
2022-11-29T04:12:12.466Z,175.60
2022-11-29T04:13:12.491Z,141.60
2022-11-29T04:14:12.476Z,109.00
2022-11-29T04:15:15.490Z,160.80
2022-11-29T04:16:12.493Z,97.60
2022-11-29T04:17:12.477Z,150.50
2022-11-29T04:18:12.409Z,195.60
2022-11-29T04:19:12.442Z,195.60
2022-11-29T04:20:12.418Z,196.90
2022-11-29T04:21:12.375Z,162.40
2022-11-29T04:22:12.364Z,174.10
2022-11-29T04:23:12.430Z,181.60
2022-11-29T04:24:12.392Z,157.50
2022-11-29T04:25:12.363Z,225.80
2022-11-29T04:26:12.354Z,180.20
2022-11-29T04:27:12.333Z,158.00
2022-11-29T04:28:12.294Z,137.20
2022-11-29T04:29:12.266Z,150.90
2022-11-29T04:30:12.292Z,102.50
2022-11-29T04:31:12.355Z,116.40
2022-11-29T04:32:12.268Z,124.00
2022-11-29T04:33:12.260Z,117.60
2022-11-29T04:34:12.242Z,123.30
2022-11-29T04:35:12.229Z,131.70
2022-11-29T04:36:12.231Z,118.30
2022-11-29T04:37:12.240Z,135.00
2022-11-29T04:38:12.219Z,123.60
2022-11-29T04:39:12.195Z,132.50
2022-11-29T04:40:12.177Z,132.40
2022-11-29T04:41:12.215Z,122.00
2022-11-29T04:42:12.147Z,129.10
2022-11-29T04:43:12.149Z,118.80
2022-11-29T04:44:12.147Z,143.40
2022-11-29T04:45:12.143Z,144.00
2022-11-29T04:46:12.128Z,98.60
2022-11-29T04:47:12.149Z,106.00
2022-11-29T04:48:12.089Z,145.70
2022-11-29T04:49:12.077Z,176.10
2022-11-29T04:50:12.053Z,155.60
2022-11-29T04:51:12.081Z,188.00
2022-11-29T04:52:12.057Z,133.70
2022-11-29T04:53:12.057Z,110.50
2022-11-29T04:54:12.060Z,90.80
2022-11-29T04:55:13.890Z,100.50
2022-11-29T04:56:12.010Z,199.70
2022-11-29T04:57:12.042Z,129.20
2022-11-29T04:58:12.012Z,137.80
2022-11-29T04:59:12.000Z,109.60
2022-11-29T05:00:12.001Z,112.80
2022-11-29T05:01:11.962Z,122.90
2022-11-29T05:02:11.930Z,170.60
2022-11-29T05:03:11.933Z,136.50
2022-11-29T05:04:11.920Z,102.50
2022-11-29T05:05:11.911Z,104.70
2022-11-29T05:06:11.914Z,100.20
2022-11-29T05:07:11.960Z,91.40
2022-11-29T05:08:11.889Z,162.30
2022-11-29T05:09:11.889Z,141.30
2022-11-29T05:10:11.927Z,113.70
2022-11-29T05:11:11.858Z,79.30
2022-11-29T05:12:11.853Z,109.30
2022-11-29T05:13:11.847Z,131.40
2022-11-29T05:14:11.823Z,111.40
2022-11-29T05:15:11.822Z,150.10
2022-11-29T05:16:11.834Z,117.50
2022-11-29T05:17:11.796Z,85.90
2022-11-29T05:18:11.782Z,91.50
2022-11-29T05:19:11.789Z,92.40
2022-11-29T05:20:11.785Z,99.70
2022-11-29T05:21:11.775Z,111.10
2022-11-29T05:22:11.732Z,122.80
2022-11-29T05:23:11.773Z,152.20
2022-11-29T05:24:11.704Z,94.20
2022-11-29T05:25:11.809Z,92.90
2022-11-29T05:26:11.713Z,122.80
2022-11-29T05:27:11.686Z,104.70
2022-11-29T05:28:11.643Z,118.20
2022-11-29T05:29:11.682Z,106.50
2022-11-29T05:30:11.665Z,95.80
2022-11-29T05:31:11.713Z,126.40
2022-11-29T05:32:11.626Z,113.10
2022-11-29T05:33:11.608Z,90.70
2022-11-29T05:34:11.631Z,106.70
2022-11-29T05:35:11.699Z,95.10
2022-11-29T05:36:11.603Z,103.30
2022-11-29T05:37:11.604Z,110.70
2022-11-29T05:38:11.584Z,104.10
2022-11-29T05:39:11.586Z,98.90
2022-11-29T05:40:11.547Z,87.90
2022-11-29T05:41:11.520Z,103.90
2022-11-29T05:42:11.560Z,100.40
2022-11-29T05:43:12.407Z,109.40
2022-11-29T05:44:11.525Z,105.70
2022-11-29T05:45:11.533Z,99.40
2022-11-29T05:46:11.551Z,90.90
2022-11-29T05:47:11.465Z,138.90
2022-11-29T05:48:11.448Z,153.30
2022-11-29T05:49:11.482Z,144.50
2022-11-29T05:50:11.465Z,135.80
2022-11-29T05:51:11.465Z,106.10
2022-11-29T05:52:11.565Z,127.30
2022-11-29T05:53:11.471Z,118.60
2022-11-29T05:54:11.555Z,90.90
2022-11-29T05:55:11.478Z,92.10
2022-11-29T05:56:11.554Z,111.80
2022-11-29T05:57:11.488Z,103.60
2022-11-29T05:58:11.395Z,119.20
2022-11-29T05:59:11.461Z,86.20
2022-11-29T06:00:11.488Z,84.00
2022-11-29T06:01:11.493Z,79.10
2022-11-29T06:02:11.601Z,103.20
2022-11-29T06:03:11.571Z,102.90
2022-11-29T06:04:14.737Z,76.00
2022-11-29T06:05:11.426Z,133.80
2022-11-29T06:06:11.453Z,81.30
2022-11-29T06:07:11.427Z,91.00
2022-11-29T06:08:11.425Z,115.60
2022-11-29T06:09:11.404Z,91.40
2022-11-29T06:10:11.357Z,77.40
2022-11-29T06:11:11.374Z,68.10
2022-11-29T06:12:11.352Z,77.20
2022-11-29T06:13:11.372Z,81.40
2022-11-29T06:14:11.364Z,100.20
2022-11-29T06:15:11.199Z,107.70
2022-11-29T06:16:11.419Z,110.60
2022-11-29T06:17:11.269Z,112.00
2022-11-29T06:18:11.254Z,112.40
2022-11-29T06:19:11.259Z,113.30
2022-11-29T06:20:11.230Z,110.70
2022-11-29T06:21:11.300Z,104.90
2022-11-29T06:22:11.218Z,109.30
2022-11-29T06:23:11.234Z,115.20
2022-11-29T06:24:11.662Z,104.10
2022-11-29T06:25:11.411Z,104.00
2022-11-29T06:26:11.548Z,108.00
2022-11-29T06:27:11.273Z,102.70
2022-11-29T06:28:11.425Z,120.60
2022-11-29T06:29:11.355Z,137.50
2022-11-29T06:30:11.275Z,107.10
2022-11-29T06:31:11.451Z,107.00
2022-11-29T06:32:11.185Z,149.50
2022-11-29T06:33:11.588Z,117.00
2022-11-29T06:34:11.009Z,95.20
2022-11-29T06:35:10.964Z,107.60
2022-11-29T06:36:10.967Z,114.90
2022-11-29T06:37:10.946Z,116.60
2022-11-29T06:38:10.945Z,128.90
2022-11-29T06:39:10.980Z,180.80
2022-11-29T06:40:10.902Z,197.40
2022-11-29T06:41:10.911Z,191.30
2022-11-29T06:42:10.914Z,80.70
2022-11-29T06:43:10.860Z,83.10
2022-11-29T06:44:10.900Z,84.20
2022-11-29T06:45:10.829Z,83.00
2022-11-29T06:46:10.892Z,82.90
2022-11-29T06:47:10.777Z,86.10
2022-11-29T06:48:10.795Z,75.60
2022-11-29T06:49:10.845Z,75.20
2022-11-29T06:50:10.789Z,80.70
2022-11-29T06:51:10.820Z,81.00
2022-11-29T06:52:10.755Z,72.10
2022-11-29T06:53:10.729Z,106.10
2022-11-29T06:54:10.768Z,107.00
2022-11-29T06:55:10.696Z,77.80
2022-11-29T06:56:10.756Z,89.90
2022-11-29T06:57:10.692Z,91.40
2022-11-29T06:58:10.697Z,91.30
2022-11-29T06:59:10.724Z,93.10
2022-11-29T07:00:10.689Z,98.30
2022-11-29T07:01:10.745Z,95.90
2022-11-29T07:02:10.690Z,99.60
2022-11-29T07:03:10.847Z,99.00
2022-11-29T07:04:10.662Z,101.30
2022-11-29T07:05:10.673Z,99.90
2022-11-29T07:06:10.590Z,120.50
2022-11-29T07:07:10.571Z,134.50
2022-11-29T07:08:10.578Z,102.00
2022-11-29T07:09:10.562Z,115.70
2022-11-29T07:10:14.715Z,122.70
2022-11-29T07:11:10.618Z,158.80
2022-11-29T07:12:10.531Z,151.10
2022-11-29T07:13:10.623Z,150.10
2022-11-29T07:14:10.499Z,143.40
2022-11-29T07:15:11.321Z,169.00
2022-11-29T07:16:10.561Z,149.90
2022-11-29T07:17:10.503Z,127.80
2022-11-29T07:18:10.517Z,99.10
2022-11-29T07:19:10.463Z,136.60
2022-11-29T07:20:10.450Z,100.40
2022-11-29T07:21:10.427Z,84.90
2022-11-29T07:22:10.414Z,81.90
2022-11-29T07:23:10.433Z,83.10
2022-11-29T07:24:10.422Z,88.80
2022-11-29T07:25:10.395Z,106.40
2022-11-29T07:26:10.462Z,116.60
2022-11-29T07:27:10.354Z,118.70
2022-11-29T07:28:10.405Z,110.60
2022-11-29T07:29:10.414Z,86.00
2022-11-29T07:30:10.377Z,78.00
2022-11-29T07:31:10.358Z,83.90
2022-11-29T07:32:10.393Z,76.00
2022-11-29T07:33:10.331Z,87.50
2022-11-29T07:34:10.325Z,91.00
2022-11-29T07:35:10.293Z,95.20
2022-11-29T07:36:10.260Z,94.60
2022-11-29T07:37:10.291Z,94.70
2022-11-29T07:38:10.307Z,119.10
2022-11-29T07:39:10.285Z,178.90
2022-11-29T07:40:10.250Z,158.30
2022-11-29T07:41:10.227Z,132.80
2022-11-29T07:42:10.265Z,108.50
2022-11-29T07:43:10.263Z,93.30
2022-11-29T07:44:10.184Z,85.10
2022-11-29T07:45:10.211Z,123.20
2022-11-29T07:46:10.166Z,113.90
2022-11-29T07:47:10.149Z,89.30
2022-11-29T07:48:10.168Z,108.20
2022-11-29T07:49:10.140Z,90.60
2022-11-29T07:50:10.133Z,96.90
2022-11-29T07:51:10.131Z,117.60
2022-11-29T07:52:10.173Z,128.80
2022-11-29T07:53:10.101Z,109.50
2022-11-29T07:54:10.086Z,99.50
2022-11-29T07:55:14.339Z,124.30
2022-11-29T07:56:10.137Z,98.90
2022-11-29T07:57:10.083Z,133.80
2022-11-29T07:58:10.044Z,134.70
2022-11-29T07:59:10.050Z,171.20
2022-11-29T08:00:10.065Z,151.70
2022-11-29T08:01:10.061Z,123.20
2022-11-29T08:02:11.809Z,119.30
2022-11-29T08:03:10.019Z,125.30
2022-11-29T08:04:10.007Z,123.10
2022-11-29T08:05:10.040Z,121.40
2022-11-29T08:06:10.004Z,138.00
2022-11-29T08:07:09.978Z,145.50
2022-11-29T08:08:09.991Z,200.30
2022-11-29T08:09:09.906Z,172.40
2022-11-29T08:10:09.941Z,144.10
2022-11-29T08:11:09.926Z,151.90
2022-11-29T08:12:09.938Z,147.60
2022-11-29T08:13:09.868Z,167.30
2022-11-29T08:14:09.912Z,153.00
2022-11-29T08:15:09.942Z,175.70
2022-11-29T08:16:10.045Z,139.60
2022-11-29T08:17:09.841Z,137.60
2022-11-29T08:18:09.912Z,164.00
2022-11-29T08:19:09.875Z,165.70
2022-11-29T08:20:09.945Z,143.70
2022-11-29T08:21:09.858Z,179.50
2022-11-29T08:22:09.837Z,165.90
2022-11-29T08:23:09.835Z,176.90
2022-11-29T08:24:09.817Z,193.40
2022-11-29T08:25:09.834Z,196.50
2022-11-29T08:26:09.782Z,168.00
2022-11-29T08:27:09.727Z,228.90
2022-11-29T08:28:09.750Z,180.60
2022-11-29T08:29:09.762Z,149.20
2022-11-29T08:30:09.734Z,176.60
2022-11-29T08:31:09.755Z,137.20
2022-11-29T08:32:09.713Z,156.30
2022-11-29T08:33:09.681Z,152.00
2022-11-29T08:34:09.678Z,161.00
2022-11-29T08:35:09.758Z,133.10
2022-11-29T08:36:09.727Z,161.40
2022-11-29T08:37:09.661Z,165.30
2022-11-29T08:38:09.717Z,156.30
2022-11-29T08:39:09.863Z,153.60
2022-11-29T08:40:09.639Z,160.10
2022-11-29T08:41:09.600Z,184.90
2022-11-29T08:42:09.635Z,179.20
2022-11-29T08:43:09.590Z,159.90
2022-11-29T08:44:09.623Z,130.70
2022-11-29T08:45:09.597Z,160.40
2022-11-29T08:46:12.505Z,187.50
2022-11-29T08:47:09.578Z,152.10
2022-11-29T08:48:09.559Z,128.00
2022-11-29T08:49:09.527Z,143.60
2022-11-29T08:50:09.530Z,130.70
2022-11-29T08:51:09.534Z,124.40
2022-11-29T08:52:09.521Z,136.40
2022-11-29T08:53:09.475Z,137.90
2022-11-29T08:54:09.491Z,151.20
2022-11-29T08:55:09.511Z,139.30
2022-11-29T08:56:41.636Z,125.80
2022-11-29T08:58:09.439Z,135.10
2022-11-29T08:59:09.380Z,124.00
2022-11-29T09:00:09.492Z,115.20
2022-11-29T09:01:09.524Z,132.50
2022-11-29T09:02:09.484Z,114.70
2022-11-29T09:03:09.415Z,117.10
2022-11-29T09:04:09.377Z,115.00
2022-11-29T09:05:09.415Z,119.60
2022-11-29T09:06:12.549Z,120.90
2022-11-29T09:07:09.344Z,119.10
2022-11-29T09:08:09.340Z,114.60
2022-11-29T09:09:09.333Z,121.60
2022-11-29T09:10:09.298Z,117.30
2022-11-29T09:11:09.815Z,116.20
2022-11-29T09:12:09.264Z,114.80
2022-11-29T09:13:09.253Z,115.10
2022-11-29T09:14:09.263Z,104.10
2022-11-29T09:15:09.230Z,113.70
2022-11-29T09:16:09.305Z,104.70
2022-11-29T09:17:09.258Z,112.50
2022-11-29T09:18:09.302Z,113.10
2022-11-29T09:19:09.206Z,109.60
2022-11-29T09:20:09.182Z,112.10
2022-11-29T09:21:09.193Z,120.60
2022-11-29T09:22:09.213Z,115.10
2022-11-29T09:23:09.182Z,112.90
2022-11-29T09:24:09.219Z,125.20
2022-11-29T09:25:09.118Z,132.50
2022-11-29T09:26:09.166Z,131.60
2022-11-29T09:27:09.100Z,124.70
2022-11-29T09:28:09.158Z,140.10
2022-11-29T09:29:09.091Z,120.40
2022-11-29T09:30:09.089Z,120.80
2022-11-29T09:31:09.079Z,126.70
2022-11-29T09:32:09.194Z,119.70
2022-11-29T09:33:09.057Z,122.10
2022-11-29T09:34:09.026Z,131.40
2022-11-29T09:35:09.007Z,137.50
2022-11-29T09:36:09.095Z,144.80
2022-11-29T09:37:09.034Z,145.90
2022-11-29T09:38:09.035Z,163.30
2022-11-29T09:39:09.004Z,167.70
2022-11-29T09:40:09.004Z,164.50
2022-11-29T09:41:09.052Z,169.40
2022-11-29T09:42:08.983Z,164.10
2022-11-29T09:43:08.967Z,160.30
2022-11-29T09:44:08.934Z,163.70
2022-11-29T09:45:08.933Z,173.10
2022-11-29T09:46:08.962Z,188.60
2022-11-29T09:47:08.896Z,161.40
2022-11-29T09:48:08.906Z,168.90
2022-11-29T09:49:08.892Z,170.40
2022-11-29T09:50:08.928Z,163.20
2022-11-29T09:51:08.949Z,158.10
2022-11-29T09:52:08.816Z,142.60
2022-11-29T09:53:08.879Z,140.90
2022-11-29T09:54:08.826Z,133.10
2022-11-29T09:55:08.792Z,119.20
2022-11-29T09:56:08.818Z,120.30
2022-11-29T09:57:10.835Z,115.00
2022-11-29T09:58:08.792Z,111.50
2022-11-29T09:59:08.812Z,108.40
2022-11-29T10:00:08.800Z,112.40
2022-11-29T10:01:08.811Z,119.30
2022-11-29T10:02:08.805Z,140.50
2022-11-29T10:03:08.724Z,108.40
2022-11-29T10:04:08.747Z,111.70
2022-11-29T10:05:08.721Z,112.70
2022-11-29T10:06:08.732Z,118.60
2022-11-29T10:07:08.699Z,105.50
2022-11-29T10:08:08.672Z,98.80
2022-11-29T10:09:08.697Z,120.40
2022-11-29T10:10:08.722Z,112.30
2022-11-29T10:11:08.669Z,124.00
2022-11-29T10:12:08.630Z,120.80
2022-11-29T10:13:08.706Z,113.70
2022-11-29T10:14:08.673Z,105.00
2022-11-29T10:15:08.600Z,114.20
2022-11-29T10:16:08.665Z,117.60
2022-11-29T10:17:08.604Z,113.70
2022-11-29T10:18:08.612Z,98.90
2022-11-29T10:19:08.580Z,115.80
2022-11-29T10:20:08.565Z,107.70
2022-11-29T10:21:08.544Z,118.10
2022-11-29T10:22:08.498Z,143.30
2022-11-29T10:23:08.592Z,118.90
2022-11-29T10:24:08.533Z,120.20
2022-11-29T10:25:08.502Z,120.90
2022-11-29T10:26:08.510Z,136.30
2022-11-29T10:27:08.533Z,118.20
2022-11-29T10:28:08.460Z,126.10
2022-11-29T10:29:08.466Z,130.50
2022-11-29T10:30:08.442Z,143.90
2022-11-29T10:31:08.485Z,139.20
2022-11-29T10:32:10.359Z,152.90
2022-11-29T10:33:08.421Z,151.70
2022-11-29T10:34:08.402Z,143.40
2022-11-29T10:35:08.407Z,149.60
2022-11-29T10:36:08.400Z,141.90
2022-11-29T10:37:08.373Z,150.80
2022-11-29T10:38:29.620Z,142.60
2022-11-29T10:39:14.183Z,148.50
2022-11-29T10:40:08.386Z,143.70
2022-11-29T10:41:08.341Z,143.60
2022-11-29T10:42:08.382Z,127.50
2022-11-29T10:43:08.345Z,129.10
2022-11-29T10:44:08.320Z,132.80
2022-11-29T10:45:08.283Z,128.70
2022-11-29T10:46:08.288Z,122.30
2022-11-29T10:47:11.060Z,124.10
2022-11-29T10:48:08.259Z,141.70
2022-11-29T10:49:08.285Z,112.20
2022-11-29T10:50:08.228Z,132.70
2022-11-29T10:51:08.227Z,126.70
2022-11-29T10:52:08.227Z,121.00
2022-11-29T10:53:08.236Z,120.90
2022-11-29T10:54:08.176Z,133.00
2022-11-29T10:55:08.178Z,124.20
2022-11-29T10:56:08.154Z,118.10
2022-11-29T10:57:08.208Z,114.00
2022-11-29T10:58:08.166Z,107.60
2022-11-29T10:59:08.201Z,116.80
2022-11-29T11:00:08.120Z,114.30
2022-11-29T11:01:08.414Z,116.60
2022-11-29T11:02:08.119Z,106.40
2022-11-29T11:03:08.127Z,116.00
2022-11-29T11:04:08.063Z,110.10
2022-11-29T11:05:08.135Z,107.70
2022-11-29T11:06:08.072Z,110.70
2022-11-29T11:07:08.082Z,116.90
2022-11-29T11:08:08.018Z,123.10
2022-11-29T11:09:08.006Z,127.40
2022-11-29T11:10:08.055Z,122.20
2022-11-29T11:11:08.031Z,136.10
2022-11-29T11:12:08.002Z,118.10
2022-11-29T11:13:08.008Z,140.70
2022-11-29T11:14:07.984Z,141.50
2022-11-29T11:15:07.951Z,113.90
2022-11-29T11:16:07.961Z,106.90
2022-11-29T11:17:08.025Z,105.70
2022-11-29T11:18:07.919Z,116.30
2022-11-29T11:19:07.961Z,110.80
2022-11-29T11:20:07.932Z,119.20
2022-11-29T11:21:07.902Z,121.60
2022-11-29T11:22:07.938Z,110.10
2022-11-29T11:23:07.913Z,106.80
2022-11-29T11:24:07.904Z,109.50
2022-11-29T11:25:07.877Z,116.40
2022-11-29T11:26:07.862Z,126.90
2022-11-29T11:27:07.834Z,136.20
2022-11-29T11:28:07.825Z,105.80
2022-11-29T11:29:07.839Z,114.60
2022-11-29T11:30:07.807Z,129.70
2022-11-29T11:31:07.881Z,120.90
2022-11-29T11:32:07.846Z,120.30
2022-11-29T11:33:07.850Z,134.20
2022-11-29T11:34:07.795Z,139.90
2022-11-29T11:35:07.790Z,111.80
2022-11-29T11:36:07.818Z,119.50
2022-11-29T11:37:07.730Z,112.20
2022-11-29T11:38:07.758Z,118.10
2022-11-29T11:39:07.764Z,112.90
2022-11-29T11:40:07.751Z,123.50
2022-11-29T11:41:07.744Z,109.60
2022-11-29T11:42:07.697Z,128.00
2022-11-29T11:43:07.672Z,118.30
2022-11-29T11:44:15.231Z,109.50
2022-11-29T11:45:07.680Z,125.00
2022-11-29T11:46:08.296Z,116.30
2022-11-29T11:47:07.666Z,111.40
2022-11-29T11:48:07.584Z,110.30
2022-11-29T11:49:07.639Z,104.80
2022-11-29T11:50:07.618Z,109.30
2022-11-29T11:51:07.604Z,107.20
2022-11-29T11:52:07.565Z,113.10
2022-11-29T11:53:07.630Z,106.30
2022-11-29T11:54:07.556Z,110.70
2022-11-29T11:55:07.565Z,108.20
2022-11-29T11:56:07.537Z,122.60
2022-11-29T11:57:07.542Z,115.40
2022-11-29T11:58:10.651Z,111.30
2022-11-29T11:59:07.505Z,111.10
2022-11-29T12:00:07.603Z,113.40
2022-11-29T12:01:07.523Z,129.30
2022-11-29T12:02:07.578Z,126.80
2022-11-29T12:03:07.594Z,118.20
2022-11-29T12:04:07.478Z,133.40
2022-11-29T12:05:07.436Z,121.30
2022-11-29T12:06:07.456Z,120.40
2022-11-29T12:07:07.423Z,124.10
2022-11-29T12:08:08.626Z,115.60
2022-11-29T12:09:07.459Z,127.60
2022-11-29T12:10:07.383Z,127.40
2022-11-29T12:11:07.783Z,116.10
2022-11-29T12:12:07.363Z,122.90
2022-11-29T12:13:07.399Z,121.30
2022-11-29T12:14:07.357Z,121.90
2022-11-29T12:15:07.384Z,129.30
2022-11-29T12:16:07.333Z,118.40
2022-11-29T12:17:07.322Z,116.70
2022-11-29T12:18:07.284Z,132.30
2022-11-29T12:19:07.285Z,128.60
2022-11-29T12:20:07.306Z,125.10
2022-11-29T12:21:07.419Z,125.60
2022-11-29T12:22:07.324Z,133.70
2022-11-29T12:23:07.276Z,139.50
2022-11-29T12:24:07.233Z,139.30
2022-11-29T12:25:07.235Z,129.60
2022-11-29T12:26:07.265Z,125.80
2022-11-29T12:27:07.273Z,128.30
2022-11-29T12:28:07.258Z,135.80
2022-11-29T12:29:07.193Z,148.70
2022-11-29T12:30:07.189Z,114.30
2022-11-29T12:31:07.294Z,124.50
2022-11-29T12:32:07.337Z,114.30
2022-11-29T12:33:07.195Z,118.50